sensor_id;sensor_type;location;lat;lon;timestamp;P1;durP1;ratioP1;P2;durP2;ratioP2
65206;SDS011;58477;48.072;11.970;2023-11-19T00:01:32;8.40;;;2.70;;
65206;SDS011;58477;48.072;11.970;2023-11-19T00:03:58;2.55;;;2.35;;
65206;SDS011;58477;48.072;11.970;2023-11-19T00:06:23;2.63;;;2.42;;
65206;SDS011;58477;48.072;11.970;2023-11-19T00:08:50;5.53;;;3.03;;
65206;SDS011;58477;48.072;11.970;2023-11-19T00:11:16;3.83;;;2.70;;
65206;SDS011;58477;48.072;11.970;2023-11-19T00:13:41;14.02;;;3.15;;
65206;SDS011;58477;48.072;11.970;2023-11-19T00:16:07;2.85;;;2.63;;
65206;SDS011;58477;48.072;11.970;2023-11-19T00:18:34;9.68;;;2.60;;
65206;SDS011;58477;48.072;11.970;2023-11-19T00:21:00;3.45;;;3.00;;
65206;SDS011;58477;48.072;11.970;2023-11-19T00:23:27;3.50;;;3.20;;
65206;SDS011;58477;48.072;11.970;2023-11-19T00:25:52;2.20;;;2.00;;
65206;SDS011;58477;48.072;11.970;2023-11-19T00:28:18;3.63;;;2.85;;
65206;SDS011;58477;48.072;11.970;2023-11-19T00:30:43;3.22;;;2.10;;
65206;SDS011;58477;48.072;11.970;2023-11-19T00:33:09;2.58;;;2.38;;
65206;SDS011;58477;48.072;11.970;2023-11-19T00:35:34;3.00;;;2.72;;
65206;SDS011;58477;48.072;11.970;2023-11-19T00:37:59;2.80;;;2.60;;
65206;SDS011;58477;48.072;11.970;2023-11-19T00:40:25;3.92;;;2.63;;
65206;SDS011;58477;48.072;11.970;2023-11-19T00:42:51;3.65;;;2.38;;
65206;SDS011;58477;48.072;11.970;2023-11-19T00:45:16;3.00;;;2.75;;
65206;SDS011;58477;48.072;11.970;2023-11-19T00:47:42;3.38;;;2.90;;
65206;SDS011;58477;48.072;11.970;2023-11-19T00:50:08;3.75;;;3.22;;
65206;SDS011;58477;48.072;11.970;2023-11-19T00:52:37;2.42;;;2.22;;
65206;SDS011;58477;48.072;11.970;2023-11-19T00:55:04;2.95;;;2.55;;
65206;SDS011;58477;48.072;11.970;2023-11-19T00:57:32;4.03;;;2.90;;
65206;SDS011;58477;48.072;11.970;2023-11-19T00:59:58;2.88;;;2.60;;
65206;SDS011;58477;48.072;11.970;2023-11-19T01:02:24;3.60;;;3.08;;
65206;SDS011;58477;48.072;11.970;2023-11-19T01:04:50;2.58;;;2.38;;
65206;SDS011;58477;48.072;11.970;2023-11-19T01:07:15;3.38;;;2.83;;
65206;SDS011;58477;48.072;11.970;2023-11-19T01:09:44;3.20;;;2.90;;
65206;SDS011;58477;48.072;11.970;2023-11-19T01:12:09;3.15;;;1.67;;
65206;SDS011;58477;48.072;11.970;2023-11-19T01:14:35;2.45;;;2.15;;
65206;SDS011;58477;48.072;11.970;2023-11-19T01:17:01;3.00;;;2.70;;
65206;SDS011;58477;48.072;11.970;2023-11-19T01:19:26;3.47;;;1.60;;
65206;SDS011;58477;48.072;11.970;2023-11-19T01:21:53;1.73;;;1.40;;
65206;SDS011;58477;48.072;11.970;2023-11-19T01:24:19;1.48;;;1.38;;
65206;SDS011;58477;48.072;11.970;2023-11-19T01:26:45;7.93;;;1.52;;
65206;SDS011;58477;48.072;11.970;2023-11-19T01:29:12;1.42;;;1.33;;
65206;SDS011;58477;48.072;11.970;2023-11-19T01:31:41;8.30;;;2.60;;
65206;SDS011;58477;48.072;11.970;2023-11-19T01:34:07;19.48;;;3.03;;
65206;SDS011;58477;48.072;11.970;2023-11-19T01:36:33;4.68;;;1.75;;
65206;SDS011;58477;48.072;11.970;2023-11-19T01:38:58;23.13;;;2.67;;
65206;SDS011;58477;48.072;11.970;2023-11-19T01:41:24;16.63;;;2.92;;
65206;SDS011;58477;48.072;11.970;2023-11-19T01:43:50;14.50;;;2.78;;
65206;SDS011;58477;48.072;11.970;2023-11-19T01:46:15;1.90;;;1.80;;
65206;SDS011;58477;48.072;11.970;2023-11-19T01:48:45;6.32;;;2.92;;
65206;SDS011;58477;48.072;11.970;2023-11-19T01:51:15;34.85;;;3.17;;
65206;SDS011;58477;48.072;11.970;2023-11-19T01:53:42;58.88;;;3.90;;
65206;SDS011;58477;48.072;11.970;2023-11-19T01:56:08;50.60;;;4.25;;
65206;SDS011;58477;48.072;11.970;2023-11-19T01:58:35;48.97;;;3.67;;
65206;SDS011;58477;48.072;11.970;2023-11-19T02:01:01;12.18;;;3.08;;
65206;SDS011;58477;48.072;11.970;2023-11-19T02:03:30;3.97;;;2.72;;
65206;SDS011;58477;48.072;11.970;2023-11-19T02:05:57;17.15;;;3.00;;
65206;SDS011;58477;48.072;11.970;2023-11-19T02:08:24;66.20;;;4.13;;
65206;SDS011;58477;48.072;11.970;2023-11-19T02:10:49;17.65;;;3.40;;
65206;SDS011;58477;48.072;11.970;2023-11-19T02:13:14;83.55;;;4.82;;
65206;SDS011;58477;48.072;11.970;2023-11-19T02:15:41;6.13;;;2.80;;
65206;SDS011;58477;48.072;11.970;2023-11-19T02:18:23;29.05;;;3.67;;
65206;SDS011;58477;48.072;11.970;2023-11-19T02:20:53;13.43;;;3.20;;
65206;SDS011;58477;48.072;11.970;2023-11-19T02:23:19;21.60;;;3.78;;
65206;SDS011;58477;48.072;11.970;2023-11-19T02:28:45;11.55;;;3.50;;
65206;SDS011;58477;48.072;11.970;2023-11-19T02:31:10;3.35;;;3.05;;
65206;SDS011;58477;48.072;11.970;2023-11-19T02:33:37;14.80;;;3.45;;
65206;SDS011;58477;48.072;11.970;2023-11-19T02:36:04;23.48;;;3.65;;
65206;SDS011;58477;48.072;11.970;2023-11-19T02:38:30;6.72;;;2.80;;
65206;SDS011;58477;48.072;11.970;2023-11-19T02:40:56;14.65;;;4.03;;
65206;SDS011;58477;48.072;11.970;2023-11-19T02:43:22;7.53;;;3.72;;
65206;SDS011;58477;48.072;11.970;2023-11-19T02:45:48;6.00;;;3.38;;
65206;SDS011;58477;48.072;11.970;2023-11-19T02:48:13;4.05;;;3.40;;
65206;SDS011;58477;48.072;11.970;2023-11-19T02:50:41;2.92;;;2.55;;
65206;SDS011;58477;48.072;11.970;2023-11-19T02:53:09;1.85;;;1.75;;
65206;SDS011;58477;48.072;11.970;2023-11-19T02:55:35;2.17;;;1.98;;
65206;SDS011;58477;48.072;11.970;2023-11-19T02:58:03;3.17;;;2.88;;
65206;SDS011;58477;48.072;11.970;2023-11-19T03:00:44;4.97;;;3.78;;
65206;SDS011;58477;48.072;11.970;2023-11-19T03:03:19;3.45;;;3.15;;
65206;SDS011;58477;48.072;11.970;2023-11-19T03:05:48;3.75;;;3.33;;
65206;SDS011;58477;48.072;11.970;2023-11-19T03:08:16;5.80;;;3.47;;
65206;SDS011;58477;48.072;11.970;2023-11-19T03:10:42;3.85;;;3.30;;
65206;SDS011;58477;48.072;11.970;2023-11-19T03:13:11;6.03;;;3.55;;
65206;SDS011;58477;48.072;11.970;2023-11-19T03:15:42;4.32;;;3.25;;
65206;SDS011;58477;48.072;11.970;2023-11-19T03:18:08;3.78;;;3.05;;
65206;SDS011;58477;48.072;11.970;2023-11-19T03:20:34;4.30;;;3.33;;
65206;SDS011;58477;48.072;11.970;2023-11-19T03:22:59;5.28;;;3.67;;
65206;SDS011;58477;48.072;11.970;2023-11-19T03:25:26;5.22;;;3.63;;
65206;SDS011;58477;48.072;11.970;2023-11-19T03:27:58;7.68;;;3.50;;
65206;SDS011;58477;48.072;11.970;2023-11-19T03:30:23;6.32;;;3.33;;
65206;SDS011;58477;48.072;11.970;2023-11-19T03:32:50;3.03;;;2.72;;
65206;SDS011;58477;48.072;11.970;2023-11-19T03:35:15;3.70;;;3.17;;
65206;SDS011;58477;48.072;11.970;2023-11-19T03:37:40;4.68;;;3.53;;
65206;SDS011;58477;48.072;11.970;2023-11-19T03:40:06;3.80;;;3.10;;
65206;SDS011;58477;48.072;11.970;2023-11-19T03:42:32;4.35;;;3.20;;
65206;SDS011;58477;48.072;11.970;2023-11-19T03:44:58;5.55;;;2.58;;
65206;SDS011;58477;48.072;11.970;2023-11-19T03:47:24;4.80;;;3.65;;
65206;SDS011;58477;48.072;11.970;2023-11-19T03:49:49;3.90;;;3.50;;
65206;SDS011;58477;48.072;11.970;2023-11-19T03:52:18;4.95;;;3.85;;
65206;SDS011;58477;48.072;11.970;2023-11-19T03:54:44;3.97;;;3.58;;
65206;SDS011;58477;48.072;11.970;2023-11-19T03:57:11;3.88;;;3.47;;
65206;SDS011;58477;48.072;11.970;2023-11-19T03:59:40;5.15;;;3.85;;
65206;SDS011;58477;48.072;11.970;2023-11-19T04:02:06;4.43;;;3.38;;
65206;SDS011;58477;48.072;11.970;2023-11-19T04:04:32;4.97;;;3.85;;
65206;SDS011;58477;48.072;11.970;2023-11-19T04:06:58;5.45;;;3.70;;
65206;SDS011;58477;48.072;11.970;2023-11-19T04:09:25;4.35;;;3.35;;
65206;SDS011;58477;48.072;11.970;2023-11-19T04:11:51;3.90;;;3.17;;
65206;SDS011;58477;48.072;11.970;2023-11-19T04:14:17;3.85;;;3.20;;
65206;SDS011;58477;48.072;11.970;2023-11-19T04:16:44;5.65;;;3.88;;
65206;SDS011;58477;48.072;11.970;2023-11-19T04:19:10;3.40;;;2.92;;
65206;SDS011;58477;48.072;11.970;2023-11-19T04:21:36;5.20;;;3.70;;
65206;SDS011;58477;48.072;11.970;2023-11-19T04:24:01;5.60;;;3.83;;
65206;SDS011;58477;48.072;11.970;2023-11-19T04:26:27;5.15;;;4.03;;
65206;SDS011;58477;48.072;11.970;2023-11-19T04:28:56;4.22;;;3.70;;
65206;SDS011;58477;48.072;11.970;2023-11-19T04:31:21;3.50;;;3.00;;
65206;SDS011;58477;48.072;11.970;2023-11-19T04:33:47;4.95;;;3.92;;
65206;SDS011;58477;48.072;11.970;2023-11-19T04:36:12;4.32;;;3.70;;
65206;SDS011;58477;48.072;11.970;2023-11-19T04:38:39;3.78;;;3.22;;
65206;SDS011;58477;48.072;11.970;2023-11-19T04:41:05;4.43;;;3.58;;
65206;SDS011;58477;48.072;11.970;2023-11-19T04:43:34;3.95;;;3.30;;
65206;SDS011;58477;48.072;11.970;2023-11-19T04:46:00;4.47;;;3.42;;
65206;SDS011;58477;48.072;11.970;2023-11-19T04:48:25;4.22;;;3.40;;
65206;SDS011;58477;48.072;11.970;2023-11-19T04:50:51;5.15;;;3.88;;
65206;SDS011;58477;48.072;11.970;2023-11-19T04:53:17;4.85;;;3.58;;
65206;SDS011;58477;48.072;11.970;2023-11-19T04:55:43;4.00;;;3.28;;
65206;SDS011;58477;48.072;11.970;2023-11-19T04:58:08;3.28;;;2.95;;
65206;SDS011;58477;48.072;11.970;2023-11-19T05:00:34;4.93;;;3.90;;
65206;SDS011;58477;48.072;11.970;2023-11-19T05:02:59;4.95;;;3.70;;
65206;SDS011;58477;48.072;11.970;2023-11-19T05:05:25;8.93;;;3.58;;
65206;SDS011;58477;48.072;11.970;2023-11-19T05:07:50;6.68;;;4.07;;
65206;SDS011;58477;48.072;11.970;2023-11-19T05:10:16;5.00;;;3.83;;
65206;SDS011;58477;48.072;11.970;2023-11-19T05:12:41;4.70;;;4.03;;
65206;SDS011;58477;48.072;11.970;2023-11-19T05:15:06;6.03;;;4.20;;
65206;SDS011;58477;48.072;11.970;2023-11-19T05:17:32;5.03;;;3.83;;
65206;SDS011;58477;48.072;11.970;2023-11-19T05:19:58;5.55;;;4.10;;
65206;SDS011;58477;48.072;11.970;2023-11-19T05:22:24;5.85;;;4.43;;
65206;SDS011;58477;48.072;11.970;2023-11-19T05:24:51;4.80;;;3.95;;
65206;SDS011;58477;48.072;11.970;2023-11-19T05:27:16;4.15;;;3.70;;
65206;SDS011;58477;48.072;11.970;2023-11-19T05:29:42;5.25;;;4.25;;
65206;SDS011;58477;48.072;11.970;2023-11-19T05:32:08;5.57;;;4.18;;
65206;SDS011;58477;48.072;11.970;2023-11-19T05:34:34;3.72;;;2.83;;
65206;SDS011;58477;48.072;11.970;2023-11-19T05:36:59;5.25;;;3.70;;
65206;SDS011;58477;48.072;11.970;2023-11-19T05:39:25;2.53;;;2.03;;
65206;SDS011;58477;48.072;11.970;2023-11-19T05:41:50;2.25;;;2.00;;
65206;SDS011;58477;48.072;11.970;2023-11-19T05:44:16;2.00;;;1.83;;
65206;SDS011;58477;48.072;11.970;2023-11-19T05:46:42;1.70;;;1.48;;
65206;SDS011;58477;48.072;11.970;2023-11-19T05:49:09;0.90;;;0.90;;
65206;SDS011;58477;48.072;11.970;2023-11-19T05:51:37;0.70;;;0.70;;
65206;SDS011;58477;48.072;11.970;2023-11-19T05:54:04;0.70;;;0.70;;
65206;SDS011;58477;48.072;11.970;2023-11-19T05:56:33;0.50;;;0.50;;
65206;SDS011;58477;48.072;11.970;2023-11-19T05:59:00;0.60;;;0.60;;
65206;SDS011;58477;48.072;11.970;2023-11-19T06:01:40;0.60;;;0.60;;
65206;SDS011;58477;48.072;11.970;2023-11-19T06:04:06;1.65;;;0.70;;
65206;SDS011;58477;48.072;11.970;2023-11-19T06:06:32;0.60;;;0.60;;
65206;SDS011;58477;48.072;11.970;2023-11-19T06:08:57;0.68;;;0.68;;
65206;SDS011;58477;48.072;11.970;2023-11-19T06:11:23;0.77;;;0.77;;
65206;SDS011;58477;48.072;11.970;2023-11-19T06:13:52;0.85;;;0.82;;
65206;SDS011;58477;48.072;11.970;2023-11-19T06:16:17;0.68;;;0.68;;
65206;SDS011;58477;48.072;11.970;2023-11-19T06:18:43;2.00;;;0.70;;
65206;SDS011;58477;48.072;11.970;2023-11-19T06:21:09;0.60;;;0.60;;
65206;SDS011;58477;48.072;11.970;2023-11-19T06:23:35;0.50;;;0.40;;
65206;SDS011;58477;48.072;11.970;2023-11-19T06:26:01;0.60;;;0.60;;
65206;SDS011;58477;48.072;11.970;2023-11-19T06:28:26;1.10;;;0.60;;
65206;SDS011;58477;48.072;11.970;2023-11-19T06:30:51;0.50;;;0.50;;
65206;SDS011;58477;48.072;11.970;2023-11-19T06:33:17;0.60;;;0.60;;
65206;SDS011;58477;48.072;11.970;2023-11-19T06:35:42;0.50;;;0.50;;
65206;SDS011;58477;48.072;11.970;2023-11-19T06:38:08;0.65;;;0.47;;
65206;SDS011;58477;48.072;11.970;2023-11-19T06:40:34;0.60;;;0.57;;
65206;SDS011;58477;48.072;11.970;2023-11-19T06:43:02;0.35;;;0.35;;
65206;SDS011;58477;48.072;11.970;2023-11-19T06:45:28;0.50;;;0.50;;
65206;SDS011;58477;48.072;11.970;2023-11-19T06:47:54;0.40;;;0.40;;
65206;SDS011;58477;48.072;11.970;2023-11-19T06:50:20;0.50;;;0.50;;
65206;SDS011;58477;48.072;11.970;2023-11-19T06:52:45;0.47;;;0.40;;
65206;SDS011;58477;48.072;11.970;2023-11-19T06:55:11;0.30;;;0.30;;
65206;SDS011;58477;48.072;11.970;2023-11-19T06:57:37;0.70;;;0.40;;
65206;SDS011;58477;48.072;11.970;2023-11-19T07:00:02;2.28;;;0.40;;
65206;SDS011;58477;48.072;11.970;2023-11-19T07:02:31;0.30;;;0.30;;
65206;SDS011;58477;48.072;11.970;2023-11-19T07:04:56;0.30;;;0.30;;
65206;SDS011;58477;48.072;11.970;2023-11-19T07:07:22;0.40;;;0.30;;
65206;SDS011;58477;48.072;11.970;2023-11-19T07:09:48;1.05;;;0.40;;
65206;SDS011;58477;48.072;11.970;2023-11-19T07:12:13;0.30;;;0.30;;
65206;SDS011;58477;48.072;11.970;2023-11-19T07:14:39;0.32;;;0.32;;
65206;SDS011;58477;48.072;11.970;2023-11-19T07:17:05;0.63;;;0.50;;
65206;SDS011;58477;48.072;11.970;2023-11-19T07:19:31;0.30;;;0.30;;
65206;SDS011;58477;48.072;11.970;2023-11-19T07:21:57;0.30;;;0.30;;
65206;SDS011;58477;48.072;11.970;2023-11-19T07:24:22;0.40;;;0.40;;
65206;SDS011;58477;48.072;11.970;2023-11-19T07:26:48;0.30;;;0.30;;
65206;SDS011;58477;48.072;11.970;2023-11-19T07:29:16;0.30;;;0.30;;
65206;SDS011;58477;48.072;11.970;2023-11-19T07:31:42;0.90;;;0.45;;
65206;SDS011;58477;48.072;11.970;2023-11-19T07:34:09;0.20;;;0.20;;
65206;SDS011;58477;48.072;11.970;2023-11-19T07:36:36;0.30;;;0.30;;
65206;SDS011;58477;48.072;11.970;2023-11-19T07:39:03;0.73;;;0.30;;
65206;SDS011;58477;48.072;11.970;2023-11-19T07:41:30;0.20;;;0.20;;
65206;SDS011;58477;48.072;11.970;2023-11-19T07:43:56;0.45;;;0.40;;
65206;SDS011;58477;48.072;11.970;2023-11-19T07:46:21;0.20;;;0.20;;
65206;SDS011;58477;48.072;11.970;2023-11-19T07:48:47;0.30;;;0.30;;
65206;SDS011;58477;48.072;11.970;2023-11-19T07:51:13;0.30;;;0.30;;
65206;SDS011;58477;48.072;11.970;2023-11-19T07:53:39;0.20;;;0.20;;
65206;SDS011;58477;48.072;11.970;2023-11-19T07:56:05;0.30;;;0.30;;
65206;SDS011;58477;48.072;11.970;2023-11-19T07:58:32;0.30;;;0.30;;
65206;SDS011;58477;48.072;11.970;2023-11-19T08:00:57;0.30;;;0.30;;
65206;SDS011;58477;48.072;11.970;2023-11-19T08:03:23;0.30;;;0.30;;
65206;SDS011;58477;48.072;11.970;2023-11-19T08:05:48;0.40;;;0.40;;
65206;SDS011;58477;48.072;11.970;2023-11-19T08:08:14;0.30;;;0.30;;
65206;SDS011;58477;48.072;11.970;2023-11-19T08:10:40;0.20;;;0.20;;
65206;SDS011;58477;48.072;11.970;2023-11-19T08:13:06;0.25;;;0.25;;
65206;SDS011;58477;48.072;11.970;2023-11-19T08:15:32;0.85;;;0.60;;
65206;SDS011;58477;48.072;11.970;2023-11-19T08:17:58;0.60;;;0.60;;
65206;SDS011;58477;48.072;11.970;2023-11-19T08:20:23;0.40;;;0.40;;
65206;SDS011;58477;48.072;11.970;2023-11-19T08:22:49;0.30;;;0.30;;
65206;SDS011;58477;48.072;11.970;2023-11-19T08:25:14;0.40;;;0.30;;
65206;SDS011;58477;48.072;11.970;2023-11-19T08:27:40;0.40;;;0.40;;
65206;SDS011;58477;48.072;11.970;2023-11-19T08:30:06;0.30;;;0.30;;
65206;SDS011;58477;48.072;11.970;2023-11-19T08:32:32;0.77;;;0.30;;
65206;SDS011;58477;48.072;11.970;2023-11-19T08:34:57;0.20;;;0.20;;
65206;SDS011;58477;48.072;11.970;2023-11-19T08:37:23;1.30;;;0.30;;
65206;SDS011;58477;48.072;11.970;2023-11-19T08:39:49;1.08;;;0.25;;
65206;SDS011;58477;48.072;11.970;2023-11-19T08:42:16;0.20;;;0.20;;
65206;SDS011;58477;48.072;11.970;2023-11-19T08:44:42;0.20;;;0.20;;
65206;SDS011;58477;48.072;11.970;2023-11-19T08:47:12;0.30;;;0.30;;
65206;SDS011;58477;48.072;11.970;2023-11-19T08:49:38;0.22;;;0.22;;
65206;SDS011;58477;48.072;11.970;2023-11-19T08:52:04;0.20;;;0.20;;
65206;SDS011;58477;48.072;11.970;2023-11-19T08:54:32;0.10;;;0.10;;
65206;SDS011;58477;48.072;11.970;2023-11-19T08:56:58;0.30;;;0.30;;
65206;SDS011;58477;48.072;11.970;2023-11-19T08:59:27;0.20;;;0.20;;
65206;SDS011;58477;48.072;11.970;2023-11-19T09:01:55;1.77;;;0.40;;
65206;SDS011;58477;48.072;11.970;2023-11-19T09:04:21;0.90;;;0.50;;
65206;SDS011;58477;48.072;11.970;2023-11-19T09:06:48;0.20;;;0.20;;
65206;SDS011;58477;48.072;11.970;2023-11-19T09:09:13;1.02;;;0.35;;
65206;SDS011;58477;48.072;11.970;2023-11-19T09:11:39;0.63;;;0.35;;
65206;SDS011;58477;48.072;11.970;2023-11-19T09:14:05;0.32;;;0.32;;
65206;SDS011;58477;48.072;11.970;2023-11-19T09:16:31;0.40;;;0.40;;
65206;SDS011;58477;48.072;11.970;2023-11-19T09:18:57;0.40;;;0.40;;
65206;SDS011;58477;48.072;11.970;2023-11-19T09:21:25;0.20;;;0.20;;
65206;SDS011;58477;48.072;11.970;2023-11-19T09:23:57;0.40;;;0.40;;
65206;SDS011;58477;48.072;11.970;2023-11-19T09:26:23;0.32;;;0.32;;
65206;SDS011;58477;48.072;11.970;2023-11-19T09:28:49;0.30;;;0.30;;
65206;SDS011;58477;48.072;11.970;2023-11-19T09:31:14;0.40;;;0.40;;
65206;SDS011;58477;48.072;11.970;2023-11-19T09:33:41;0.30;;;0.30;;
65206;SDS011;58477;48.072;11.970;2023-11-19T09:36:06;0.22;;;0.22;;
65206;SDS011;58477;48.072;11.970;2023-11-19T09:38:32;0.40;;;0.30;;
65206;SDS011;58477;48.072;11.970;2023-11-19T09:40:58;0.20;;;0.20;;
65206;SDS011;58477;48.072;11.970;2023-11-19T09:43:24;0.28;;;0.28;;
65206;SDS011;58477;48.072;11.970;2023-11-19T09:45:53;0.43;;;0.43;;
65206;SDS011;58477;48.072;11.970;2023-11-19T09:48:19;0.63;;;0.30;;
65206;SDS011;58477;48.072;11.970;2023-11-19T09:50:46;0.65;;;0.47;;
65206;SDS011;58477;48.072;11.970;2023-11-19T09:53:12;2.58;;;0.40;;
65206;SDS011;58477;48.072;11.970;2023-11-19T09:55:38;0.22;;;0.22;;
65206;SDS011;58477;48.072;11.970;2023-11-19T09:58:05;0.40;;;0.40;;
65206;SDS011;58477;48.072;11.970;2023-11-19T10:00:32;0.60;;;0.30;;
65206;SDS011;58477;48.072;11.970;2023-11-19T10:02:57;0.30;;;0.30;;
65206;SDS011;58477;48.072;11.970;2023-11-19T10:05:25;0.73;;;0.30;;
65206;SDS011;58477;48.072;11.970;2023-11-19T10:07:51;0.40;;;0.40;;
65206;SDS011;58477;48.072;11.970;2023-11-19T10:10:17;0.30;;;0.30;;
65206;SDS011;58477;48.072;11.970;2023-11-19T10:12:47;0.30;;;0.30;;
65206;SDS011;58477;48.072;11.970;2023-11-19T10:15:22;0.32;;;0.32;;
65206;SDS011;58477;48.072;11.970;2023-11-19T10:17:55;0.40;;;0.40;;
65206;SDS011;58477;48.072;11.970;2023-11-19T10:20:21;0.40;;;0.40;;
65206;SDS011;58477;48.072;11.970;2023-11-19T10:22:47;0.28;;;0.28;;
65206;SDS011;58477;48.072;11.970;2023-11-19T10:25:22;0.77;;;0.50;;
65206;SDS011;58477;48.072;11.970;2023-11-19T10:27:49;0.50;;;0.50;;
65206;SDS011;58477;48.072;11.970;2023-11-19T10:30:21;0.75;;;0.75;;
65206;SDS011;58477;48.072;11.970;2023-11-19T10:35:35;0.38;;;0.38;;
65206;SDS011;58477;48.072;11.970;2023-11-19T10:38:02;0.68;;;0.30;;
65206;SDS011;58477;48.072;11.970;2023-11-19T10:40:39;0.28;;;0.28;;
65206;SDS011;58477;48.072;11.970;2023-11-19T10:43:05;2.50;;;0.40;;
65206;SDS011;58477;48.072;11.970;2023-11-19T10:45:33;0.38;;;0.38;;
65206;SDS011;58477;48.072;11.970;2023-11-19T10:47:59;1.13;;;0.47;;
65206;SDS011;58477;48.072;11.970;2023-11-19T10:50:25;0.45;;;0.45;;
65206;SDS011;58477;48.072;11.970;2023-11-19T10:52:54;0.50;;;0.50;;
65206;SDS011;58477;48.072;11.970;2023-11-19T10:55:26;0.30;;;0.30;;
65206;SDS011;58477;48.072;11.970;2023-11-19T10:57:52;0.75;;;0.70;;
65206;SDS011;58477;48.072;11.970;2023-11-19T11:00:30;0.20;;;0.20;;
65206;SDS011;58477;48.072;11.970;2023-11-19T11:03:10;0.40;;;0.40;;
65206;SDS011;58477;48.072;11.970;2023-11-19T11:05:41;0.30;;;0.30;;
65206;SDS011;58477;48.072;11.970;2023-11-19T11:08:07;0.40;;;0.30;;
65206;SDS011;58477;48.072;11.970;2023-11-19T11:10:35;0.73;;;0.20;;
65206;SDS011;58477;48.072;11.970;2023-11-19T11:13:07;0.30;;;0.30;;
65206;SDS011;58477;48.072;11.970;2023-11-19T11:15:33;1.80;;;0.40;;
65206;SDS011;58477;48.072;11.970;2023-11-19T11:18:00;0.20;;;0.20;;
65206;SDS011;58477;48.072;11.970;2023-11-19T11:20:30;1.70;;;0.20;;
65206;SDS011;58477;48.072;11.970;2023-11-19T11:29:04;0.20;;;0.20;;
65206;SDS011;58477;48.072;11.970;2023-11-19T11:37:24;0.20;;;0.20;;
65206;SDS011;58477;48.072;11.970;2023-11-19T11:39:51;0.30;;;0.30;;
65206;SDS011;58477;48.072;11.970;2023-11-19T11:50:08;3.10;;;0.30;;
65206;SDS011;58477;48.072;11.970;2023-11-19T11:57:57;0.30;;;0.30;;
65206;SDS011;58477;48.072;11.970;2023-11-19T12:02:48;0.55;;;0.40;;
65206;SDS011;58477;48.072;11.970;2023-11-19T12:05:15;0.30;;;0.30;;
65206;SDS011;58477;48.072;11.970;2023-11-19T12:07:40;0.38;;;0.38;;
65206;SDS011;58477;48.072;11.970;2023-11-19T12:10:06;0.17;;;0.17;;
65206;SDS011;58477;48.072;11.970;2023-11-19T12:12:33;0.63;;;0.30;;
65206;SDS011;58477;48.072;11.970;2023-11-19T12:20:01;0.40;;;0.40;;
65206;SDS011;58477;48.072;11.970;2023-11-19T12:22:33;0.30;;;0.30;;
65206;SDS011;58477;48.072;11.970;2023-11-19T12:25:00;0.30;;;0.30;;
65206;SDS011;58477;48.072;11.970;2023-11-19T12:27:27;0.20;;;0.20;;
65206;SDS011;58477;48.072;11.970;2023-11-19T12:29:53;0.22;;;0.22;;
65206;SDS011;58477;48.072;11.970;2023-11-19T12:32:19;0.10;;;0.10;;
65206;SDS011;58477;48.072;11.970;2023-11-19T12:34:45;0.30;;;0.30;;
65206;SDS011;58477;48.072;11.970;2023-11-19T12:37:10;0.30;;;0.30;;
65206;SDS011;58477;48.072;11.970;2023-11-19T12:39:36;0.40;;;0.30;;
65206;SDS011;58477;48.072;11.970;2023-11-19T12:42:01;0.30;;;0.30;;
65206;SDS011;58477;48.072;11.970;2023-11-19T12:44:27;0.28;;;0.28;;
65206;SDS011;58477;48.072;11.970;2023-11-19T12:46:59;0.30;;;0.30;;
65206;SDS011;58477;48.072;11.970;2023-11-19T12:49:26;0.38;;;0.38;;
65206;SDS011;58477;48.072;11.970;2023-11-19T12:51:52;3.13;;;0.32;;
65206;SDS011;58477;48.072;11.970;2023-11-19T12:54:18;0.40;;;0.40;;
65206;SDS011;58477;48.072;11.970;2023-11-19T12:56:52;0.20;;;0.20;;
65206;SDS011;58477;48.072;11.970;2023-11-19T12:59:18;0.85;;;0.45;;
65206;SDS011;58477;48.072;11.970;2023-11-19T13:01:56;0.28;;;0.28;;
65206;SDS011;58477;48.072;11.970;2023-11-19T13:04:22;0.20;;;0.20;;
65206;SDS011;58477;48.072;11.970;2023-11-19T13:06:49;3.22;;;0.30;;
65206;SDS011;58477;48.072;11.970;2023-11-19T13:09:22;0.30;;;0.30;;
65206;SDS011;58477;48.072;11.970;2023-11-19T13:11:49;0.40;;;0.40;;
65206;SDS011;58477;48.072;11.970;2023-11-19T13:14:15;0.40;;;0.40;;
65206;SDS011;58477;48.072;11.970;2023-11-19T13:16:40;0.30;;;0.30;;
65206;SDS011;58477;48.072;11.970;2023-11-19T13:19:07;1.08;;;0.25;;
65206;SDS011;58477;48.072;11.970;2023-11-19T13:21:33;0.88;;;0.30;;
65206;SDS011;58477;48.072;11.970;2023-11-19T13:23:59;1.75;;;0.30;;
65206;SDS011;58477;48.072;11.970;2023-11-19T13:26:25;0.30;;;0.30;;
65206;SDS011;58477;48.072;11.970;2023-11-19T13:28:50;0.22;;;0.22;;
65206;SDS011;58477;48.072;11.970;2023-11-19T13:31:16;0.50;;;0.20;;
65206;SDS011;58477;48.072;11.970;2023-11-19T13:33:42;1.10;;;0.35;;
65206;SDS011;58477;48.072;11.970;2023-11-19T13:36:07;0.20;;;0.20;;
65206;SDS011;58477;48.072;11.970;2023-11-19T13:38:34;0.65;;;0.20;;
65206;SDS011;58477;48.072;11.970;2023-11-19T13:41:01;0.32;;;0.30;;
65206;SDS011;58477;48.072;11.970;2023-11-19T13:43:27;0.30;;;0.30;;
65206;SDS011;58477;48.072;11.970;2023-11-19T13:45:55;0.28;;;0.28;;
65206;SDS011;58477;48.072;11.970;2023-11-19T13:48:21;0.43;;;0.35;;
65206;SDS011;58477;48.072;11.970;2023-11-19T13:50:47;0.40;;;0.40;;
65206;SDS011;58477;48.072;11.970;2023-11-19T13:53:12;0.65;;;0.38;;
65206;SDS011;58477;48.072;11.970;2023-11-19T13:55:38;0.45;;;0.30;;
65206;SDS011;58477;48.072;11.970;2023-11-19T13:58:03;0.30;;;0.30;;
65206;SDS011;58477;48.072;11.970;2023-11-19T14:00:29;0.30;;;0.30;;
65206;SDS011;58477;48.072;11.970;2023-11-19T14:02:54;0.30;;;0.30;;
65206;SDS011;58477;48.072;11.970;2023-11-19T14:05:20;0.52;;;0.52;;
65206;SDS011;58477;48.072;11.970;2023-11-19T14:07:45;0.20;;;0.20;;
65206;SDS011;58477;48.072;11.970;2023-11-19T14:10:14;0.77;;;0.30;;
65206;SDS011;58477;48.072;11.970;2023-11-19T14:12:41;0.22;;;0.22;;
65206;SDS011;58477;48.072;11.970;2023-11-19T14:15:07;0.20;;;0.20;;
65206;SDS011;58477;48.072;11.970;2023-11-19T14:17:40;0.22;;;0.22;;
65206;SDS011;58477;48.072;11.970;2023-11-19T14:20:06;0.10;;;0.10;;
65206;SDS011;58477;48.072;11.970;2023-11-19T14:22:44;0.40;;;0.40;;
65206;SDS011;58477;48.072;11.970;2023-11-19T14:25:13;0.40;;;0.40;;
65206;SDS011;58477;48.072;11.970;2023-11-19T14:27:42;0.32;;;0.32;;
65206;SDS011;58477;48.072;11.970;2023-11-19T14:30:09;0.30;;;0.30;;
65206;SDS011;58477;48.072;11.970;2023-11-19T14:32:36;0.30;;;0.30;;
65206;SDS011;58477;48.072;11.970;2023-11-19T14:35:03;0.40;;;0.40;;
65206;SDS011;58477;48.072;11.970;2023-11-19T14:37:29;0.32;;;0.32;;
65206;SDS011;58477;48.072;11.970;2023-11-19T14:39:56;0.40;;;0.40;;
65206;SDS011;58477;48.072;11.970;2023-11-19T14:42:22;2.50;;;0.50;;
65206;SDS011;58477;48.072;11.970;2023-11-19T14:44:49;0.47;;;0.47;;
65206;SDS011;58477;48.072;11.970;2023-11-19T14:47:14;0.32;;;0.32;;
65206;SDS011;58477;48.072;11.970;2023-11-19T14:49:39;0.30;;;0.30;;
65206;SDS011;58477;48.072;11.970;2023-11-19T14:52:05;0.40;;;0.40;;
65206;SDS011;58477;48.072;11.970;2023-11-19T14:54:30;0.75;;;0.40;;
65206;SDS011;58477;48.072;11.970;2023-11-19T14:56:56;0.40;;;0.40;;
65206;SDS011;58477;48.072;11.970;2023-11-19T14:59:22;0.40;;;0.40;;
65206;SDS011;58477;48.072;11.970;2023-11-19T15:01:47;2.40;;;0.60;;
65206;SDS011;58477;48.072;11.970;2023-11-19T15:04:13;0.55;;;0.52;;
65206;SDS011;58477;48.072;11.970;2023-11-19T15:06:38;0.22;;;0.22;;
65206;SDS011;58477;48.072;11.970;2023-11-19T15:09:04;0.50;;;0.50;;